createdAt,value
2018-01-24T00:00:39.109Z,15.70
2018-01-24T00:03:07.725Z,16.97
2018-01-24T00:05:35.519Z,16.60
2018-01-24T00:08:03.117Z,15.63
2018-01-24T00:10:30.705Z,21.03
2018-01-24T00:12:59.014Z,14.97
2018-01-24T00:15:26.797Z,15.53
2018-01-24T00:17:54.795Z,17.73
2018-01-24T00:20:22.609Z,18.77
2018-01-24T00:22:50.359Z,17.07
2018-01-24T00:25:18.829Z,19.17
2018-01-24T00:27:47.309Z,18.97
2018-01-24T00:30:15.085Z,19.27
2018-01-24T00:32:43.621Z,19.03
2018-01-24T00:35:11.367Z,21.60
2018-01-24T00:37:39.836Z,22.63
2018-01-24T00:40:07.637Z,19.17
2018-01-24T00:42:35.480Z,18.97
2018-01-24T00:45:03.368Z,23.50
2018-01-24T00:47:31.172Z,19.93
2018-01-24T00:49:58.916Z,22.07
2018-01-24T00:52:26.597Z,21.77
2018-01-24T00:54:54.967Z,16.90
2018-01-24T00:57:22.770Z,20.17
2018-01-24T00:59:50.387Z,18.40
2018-01-24T01:02:18.042Z,17.17
2018-01-24T01:04:45.925Z,22.13
2018-01-24T01:07:14.507Z,25.00
2018-01-24T01:09:42.285Z,21.10
2018-01-24T01:12:10.132Z,23.17
2018-01-24T01:14:37.901Z,21.90
2018-01-24T01:17:06.425Z,17.27
2018-01-24T01:19:34.109Z,19.37
2018-01-24T01:22:02.054Z,18.57
2018-01-24T01:24:29.631Z,19.73
2018-01-24T01:26:57.811Z,16.10
2018-01-24T01:29:25.659Z,20.13
2018-01-24T01:31:53.722Z,17.80
2018-01-24T01:34:22.160Z,21.40
2018-01-24T01:36:49.957Z,18.10
2018-01-24T01:39:17.551Z,18.47
2018-01-24T01:41:45.313Z,19.47
2018-01-24T01:44:13.031Z,20.33
2018-01-24T01:46:40.651Z,18.60
2018-01-24T01:49:08.365Z,18.73
2018-01-24T01:51:37.310Z,18.07
2018-01-24T01:54:04.865Z,18.97
2018-01-24T01:56:32.685Z,14.20
2018-01-24T01:59:01.661Z,17.47
2018-01-24T02:01:30.250Z,16.67
2018-01-24T02:03:57.873Z,15.77
2018-01-24T02:06:25.503Z,15.10
2018-01-24T02:08:53.069Z,14.73
2018-01-24T02:11:20.741Z,18.63
2018-01-24T02:13:48.440Z,15.13
2018-01-24T02:16:16.915Z,12.20
2018-01-24T02:18:44.525Z,14.53
2018-01-24T02:21:12.097Z,11.90
2018-01-24T02:23:39.697Z,13.47
2018-01-24T02:26:09.110Z,11.50
2018-01-24T02:28:36.853Z,9.00
2018-01-24T02:31:05.317Z,9.40
2018-01-24T02:33:33.099Z,10.57
2018-01-24T02:36:00.717Z,9.23
2018-01-24T02:38:40.018Z,9.00
2018-01-24T02:41:07.691Z,10.70
2018-01-24T02:43:35.379Z,9.83
2018-01-24T02:46:03.041Z,8.33
2018-01-24T02:48:30.734Z,11.43
2018-01-24T02:50:58.585Z,11.77
2018-01-24T02:53:26.390Z,13.80
2018-01-24T02:55:55.849Z,9.97
2018-01-24T02:58:23.731Z,10.10
2018-01-24T03:00:51.563Z,12.83
2018-01-24T03:03:19.345Z,19.70
2018-01-24T03:05:47.099Z,15.00
2018-01-24T03:08:14.723Z,16.43
2018-01-24T03:10:42.451Z,13.90
2018-01-24T03:13:10.241Z,14.93
2018-01-24T03:15:38.017Z,17.53
2018-01-24T03:18:06.499Z,18.93
2018-01-24T03:20:34.867Z,19.03
2018-01-24T03:23:02.441Z,25.43
2018-01-24T03:25:30.983Z,25.20
2018-01-24T03:27:58.779Z,23.37
2018-01-24T03:30:27.351Z,27.07
2018-01-24T03:32:55.174Z,30.33
2018-01-24T03:35:22.909Z,29.30
2018-01-24T03:37:50.629Z,34.97
2018-01-24T03:40:18.448Z,32.47
2018-01-24T03:42:46.230Z,34.63
2018-01-24T03:45:14.483Z,35.13
2018-01-24T03:47:42.367Z,35.90
2018-01-24T03:50:10.125Z,39.87
2018-01-24T03:52:37.757Z,39.97
2018-01-24T03:55:05.444Z,40.30
2018-01-24T03:57:33.243Z,43.37
2018-01-24T04:00:01.039Z,42.93
2018-01-24T04:02:28.781Z,44.27
2018-01-24T04:04:56.619Z,45.10
2018-01-24T04:07:25.506Z,43.50
2018-01-24T04:09:53.321Z,44.17
2018-01-24T04:12:21.129Z,42.53
2018-01-24T04:14:48.973Z,45.70
2018-01-24T04:17:16.717Z,49.57
2018-01-24T04:19:44.457Z,53.80
2018-01-24T04:22:12.265Z,47.13
2018-01-24T04:24:40.818Z,51.40
2018-01-24T04:27:08.599Z,50.73
2018-01-24T04:29:37.110Z,53.27
2018-01-24T04:32:04.717Z,57.53
2018-01-24T04:34:32.321Z,52.40
2018-01-24T04:37:00.097Z,55.33
2018-01-24T04:39:27.787Z,52.43
2018-01-24T04:41:55.718Z,52.27
2018-01-24T04:44:23.756Z,55.00
2018-01-24T04:46:51.297Z,56.90
2018-01-24T04:49:20.159Z,54.87
2018-01-24T04:51:47.990Z,52.27
2018-01-24T04:54:15.799Z,53.87
2018-01-24T04:56:43.591Z,52.40
2018-01-24T04:59:11.421Z,54.17
2018-01-24T05:01:39.135Z,57.97
2018-01-24T05:04:06.729Z,59.00
2018-01-24T05:06:35.185Z,60.13
2018-01-24T05:09:02.766Z,59.20
2018-01-24T05:11:31.161Z,75.20
2018-01-24T05:13:59.792Z,63.93
2018-01-24T05:16:27.631Z,56.13
2018-01-24T05:18:55.418Z,55.87
2018-01-24T05:21:33.865Z,48.73
2018-01-24T05:24:01.672Z,57.30
2018-01-24T05:26:29.421Z,47.60
2018-01-24T05:28:57.175Z,41.40
2018-01-24T05:31:24.795Z,46.63
2018-01-24T05:33:52.461Z,44.63
2018-01-24T05:36:20.076Z,43.63
2018-01-24T05:38:48.657Z,47.43
2018-01-24T05:41:17.621Z,42.97
2018-01-24T05:43:45.289Z,44.27
2018-01-24T05:46:13.051Z,41.53
2018-01-24T05:48:41.525Z,36.83
2018-01-24T05:51:09.185Z,37.60
2018-01-24T05:53:36.787Z,35.60
2018-01-24T05:56:04.321Z,37.13
2018-01-24T05:58:31.871Z,35.23
2018-01-24T06:00:59.384Z,35.73
2018-01-24T06:03:26.921Z,37.40
2018-01-24T06:05:54.447Z,36.63
2018-01-24T06:08:21.977Z,34.33
2018-01-24T06:10:49.487Z,31.80
2018-01-24T06:13:17.024Z,32.03
2018-01-24T06:15:44.535Z,28.00
2018-01-24T06:18:12.285Z,30.37
2018-01-24T06:20:39.821Z,29.77
2018-01-24T06:23:07.335Z,29.07
2018-01-24T06:25:34.847Z,33.83
2018-01-24T06:28:02.389Z,32.67
2018-01-24T06:30:29.895Z,33.20
2018-01-24T06:32:57.399Z,35.83
2018-01-24T06:35:24.911Z,31.23
2018-01-24T06:37:52.423Z,31.47
2018-01-24T06:40:19.923Z,31.53
2018-01-24T06:42:47.448Z,30.50
2018-01-24T06:45:14.949Z,32.70
2018-01-24T06:47:42.456Z,30.97
2018-01-24T06:50:09.975Z,33.93
2018-01-24T06:52:37.485Z,33.10
2018-01-24T06:55:05.010Z,30.60
2018-01-24T06:57:32.533Z,31.03
2018-01-24T07:00:00.045Z,29.90
2018-01-24T07:02:28.345Z,28.87
2018-01-24T07:04:55.867Z,34.53
2018-01-24T07:07:23.383Z,32.93
2018-01-24T07:09:50.887Z,34.13
2018-01-24T07:12:30.345Z,35.33
2018-01-24T07:14:57.865Z,35.30
2018-01-24T07:17:25.389Z,39.97
2018-01-24T07:19:52.926Z,39.20
2018-01-24T07:22:21.195Z,43.33
2018-01-24T07:24:48.702Z,39.43
2018-01-24T07:27:16.275Z,37.37
2018-01-24T07:29:43.804Z,42.93
2018-01-24T07:32:11.320Z,45.67
2018-01-24T07:34:38.873Z,48.47
2018-01-24T07:37:06.400Z,46.20
2018-01-24T07:39:33.909Z,52.97
2018-01-24T07:42:02.205Z,48.97
2018-01-24T07:44:29.733Z,48.97
2018-01-24T07:46:57.246Z,50.07
2018-01-24T07:49:24.781Z,53.60
2018-01-24T07:51:52.284Z,56.80
2018-01-24T07:54:19.796Z,62.43
2018-01-24T07:56:47.332Z,55.07
2018-01-24T07:59:15.615Z,61.30
2018-01-24T08:01:43.902Z,64.20
2018-01-24T08:04:11.430Z,61.43
2018-01-24T08:06:38.962Z,60.77
2018-01-24T08:09:06.507Z,66.23
2018-01-24T08:11:34.045Z,67.97
2018-01-24T08:14:01.581Z,64.37
2018-01-24T08:16:29.871Z,72.37
2018-01-24T08:18:58.184Z,71.70
2018-01-24T08:21:25.721Z,69.17
2018-01-24T08:23:53.253Z,70.27
2018-01-24T08:26:21.553Z,80.23
2018-01-24T08:28:49.079Z,76.43
2018-01-24T08:31:16.609Z,72.93
2018-01-24T08:33:44.116Z,75.50
2018-01-24T08:36:12.383Z,75.63
2018-01-24T08:38:40.661Z,79.03
2018-01-24T08:41:08.948Z,69.23
2018-01-24T08:43:37.249Z,66.47
2018-01-24T08:46:04.760Z,70.93
2018-01-24T08:48:32.310Z,71.77
2018-01-24T08:50:59.849Z,71.80
2018-01-24T08:53:27.383Z,69.10
2018-01-24T08:55:54.921Z,76.40
2018-01-24T08:58:23.190Z,77.63
2018-01-24T09:00:51.484Z,76.70
2018-01-24T09:03:19.001Z,78.23
2018-01-24T09:05:46.541Z,79.50
2018-01-24T09:08:14.047Z,79.77
2018-01-24T09:10:42.363Z,87.63
2018-01-24T09:13:09.901Z,78.90
2018-01-24T09:15:37.428Z,74.13
2018-01-24T09:18:04.974Z,72.17
2018-01-24T09:20:32.502Z,76.43
2018-01-24T09:23:00.058Z,74.57
2018-01-24T09:25:27.616Z,67.43
2018-01-24T09:27:55.150Z,68.03
2018-01-24T09:30:22.685Z,64.57
2018-01-24T09:32:50.233Z,69.90
2018-01-24T09:35:17.771Z,62.67
2018-01-24T09:37:45.293Z,64.97
2018-01-24T09:40:12.836Z,74.50
2018-01-24T09:42:41.123Z,59.57
2018-01-24T09:45:08.629Z,59.70
2018-01-24T09:47:36.158Z,59.13
2018-01-24T09:50:03.654Z,62.33
2018-01-24T09:52:31.167Z,56.77
2018-01-24T09:54:58.688Z,55.50
2018-01-24T09:57:26.185Z,52.33
2018-01-24T09:59:53.682Z,52.17
2018-01-24T10:02:21.210Z,51.57
2018-01-24T10:04:48.710Z,51.83
2018-01-24T10:07:16.208Z,53.40
2018-01-24T10:09:43.729Z,45.13
2018-01-24T10:12:11.243Z,46.20
2018-01-24T10:14:38.754Z,41.60
2018-01-24T10:17:06.282Z,44.30
2018-01-24T10:19:34.571Z,42.17
2018-01-24T10:22:02.093Z,45.00
2018-01-24T10:24:29.622Z,41.17
2018-01-24T10:26:57.135Z,41.80
2018-01-24T10:29:25.401Z,42.80
2018-01-24T10:31:52.907Z,42.23
2018-01-24T10:34:21.162Z,38.87
2018-01-24T10:36:48.665Z,37.20
2018-01-24T10:39:16.804Z,38.53
2018-01-24T10:41:44.322Z,33.57
2018-01-24T10:44:11.834Z,36.43
2018-01-24T10:46:40.121Z,39.60
2018-01-24T10:49:08.389Z,40.47
2018-01-24T10:51:36.654Z,44.23
2018-01-24T10:54:04.166Z,42.47
2018-01-24T10:56:31.662Z,44.07
2018-01-24T10:58:59.174Z,43.03
2018-01-24T11:01:26.684Z,42.90
2018-01-24T11:03:54.190Z,46.70
2018-01-24T11:06:21.697Z,51.00
2018-01-24T11:08:49.212Z,52.57
2018-01-24T11:11:16.717Z,53.00
2018-01-24T11:13:44.226Z,53.40
2018-01-24T11:16:11.754Z,55.60
2018-01-24T11:18:39.259Z,57.10
2018-01-24T11:21:06.765Z,55.03
2018-01-24T11:23:35.049Z,54.57
2018-01-24T11:26:03.336Z,52.27
2018-01-24T11:28:30.839Z,55.23
2018-01-24T11:30:58.372Z,60.20
2018-01-24T11:33:25.866Z,57.73
2018-01-24T11:35:53.364Z,52.77
2018-01-24T11:38:20.876Z,55.03
2018-01-24T11:40:48.373Z,52.97
2018-01-24T11:43:15.887Z,50.93
2018-01-24T11:45:43.429Z,44.77
2018-01-24T11:48:10.924Z,40.53
2018-01-24T11:50:38.418Z,34.57
2018-01-24T11:53:05.934Z,34.60
2018-01-24T11:55:33.437Z,37.93
2018-01-24T11:58:00.954Z,39.57
2018-01-24T12:00:28.456Z,42.70
2018-01-24T12:02:55.957Z,44.33
2018-01-24T12:05:23.475Z,46.70
2018-01-24T12:07:51.108Z,47.23
2018-01-24T12:10:19.388Z,45.43
2018-01-24T12:12:47.654Z,41.37
2018-01-24T12:15:15.169Z,46.53
2018-01-24T12:17:42.680Z,40.63
2018-01-24T12:20:10.962Z,45.90
2018-01-24T12:22:38.491Z,45.43
2018-01-24T12:25:06.009Z,44.60
2018-01-24T12:27:33.512Z,45.27
2018-01-24T12:30:01.034Z,40.63
2018-01-24T12:32:28.548Z,44.47
2018-01-24T12:34:56.833Z,47.73
2018-01-24T12:37:25.134Z,51.10
2018-01-24T12:39:52.644Z,45.10
2018-01-24T12:42:20.156Z,46.93
2018-01-24T12:44:47.673Z,45.87
2018-01-24T12:47:15.220Z,45.43
2018-01-24T12:49:42.734Z,45.13
2018-01-24T12:52:10.250Z,42.13
2018-01-24T12:54:38.634Z,44.23
2018-01-24T12:57:06.204Z,44.77
2018-01-24T12:59:34.585Z,41.90
2018-01-24T13:02:02.326Z,44.87
2018-01-24T13:04:29.856Z,40.70
2018-01-24T13:06:57.424Z,48.67
2018-01-24T13:09:25.007Z,46.30
2018-01-24T13:11:52.552Z,43.23
2018-01-24T13:14:20.098Z,40.53
2018-01-24T13:16:47.796Z,38.43
2018-01-24T13:19:16.866Z,37.53
2018-01-24T13:21:44.418Z,38.57
2018-01-24T13:24:11.942Z,43.03
2018-01-24T13:26:39.511Z,39.53
2018-01-24T13:29:07.115Z,37.93
2018-01-24T13:31:34.654Z,38.07
2018-01-24T13:34:02.394Z,34.97
2018-01-24T13:36:30.284Z,35.50
2018-01-24T13:38:57.848Z,40.13
2018-01-24T13:41:27.284Z,37.17
2018-01-24T13:43:54.864Z,35.40
2018-01-24T13:46:22.384Z,36.20
2018-01-24T13:48:49.918Z,39.60
2018-01-24T13:51:17.525Z,36.20
2018-01-24T13:53:45.124Z,38.03
2018-01-24T13:56:12.648Z,39.50
2018-01-24T13:58:40.204Z,36.50
2018-01-24T14:01:08.516Z,34.50
2018-01-24T14:03:36.070Z,39.00
2018-01-24T14:06:04.754Z,38.43
2018-01-24T14:08:32.316Z,40.70
2018-01-24T14:10:59.870Z,38.27
2018-01-24T14:13:27.424Z,41.13
2018-01-24T14:15:54.951Z,37.20
2018-01-24T14:18:22.487Z,40.30
2018-01-24T14:20:50.025Z,37.93
2018-01-24T14:23:17.594Z,35.70
2018-01-24T14:25:45.176Z,35.07
2018-01-24T14:28:12.710Z,37.27
2018-01-24T14:30:40.300Z,35.00
2018-01-24T14:33:08.993Z,40.60
2018-01-24T14:35:36.521Z,45.17
2018-01-24T14:38:04.382Z,34.07
2018-01-24T14:40:33.060Z,32.93
2018-01-24T14:43:01.728Z,31.67
2018-01-24T14:45:29.282Z,31.47
2018-01-24T14:47:56.822Z,32.97
2018-01-24T14:50:24.388Z,32.37
2018-01-24T14:52:51.930Z,34.03
2018-01-24T14:55:19.493Z,31.27
2018-01-24T14:57:47.803Z,31.40
2018-01-24T15:00:16.468Z,30.07
2018-01-24T15:02:44.008Z,30.43
2018-01-24T15:05:11.627Z,34.60
2018-01-24T15:07:39.908Z,36.67
2018-01-24T15:10:07.478Z,34.47
2018-01-24T15:12:35.048Z,31.20
2018-01-24T15:15:02.596Z,34.93
2018-01-24T15:17:30.916Z,31.70
2018-01-24T15:19:58.481Z,33.53
2018-01-24T15:22:26.050Z,31.90
2018-01-24T15:24:53.588Z,34.00
2018-01-24T15:27:21.194Z,34.20
2018-01-24T15:29:48.731Z,37.33
2018-01-24T15:32:16.338Z,33.93
2018-01-24T15:34:43.898Z,34.27
2018-01-24T15:37:11.430Z,37.33
2018-01-24T15:39:38.988Z,36.63
2018-01-24T15:42:06.562Z,36.77
2018-01-24T15:44:34.082Z,36.60
2018-01-24T15:47:01.621Z,35.63
2018-01-24T15:49:29.212Z,34.70
2018-01-24T15:51:56.809Z,37.70
2018-01-24T15:54:24.328Z,38.27
2018-01-24T15:56:51.892Z,36.13
2018-01-24T15:59:19.448Z,35.60
2018-01-24T16:01:47.022Z,37.83
2018-01-24T16:04:15.293Z,33.73
2018-01-24T16:06:42.845Z,33.43
2018-01-24T16:09:11.597Z,40.50
2018-01-24T16:11:39.160Z,39.10
2018-01-24T16:14:06.710Z,37.27
2018-01-24T16:16:34.229Z,38.50
2018-01-24T16:19:01.783Z,37.43
2018-01-24T16:21:30.520Z,40.43
2018-01-24T16:23:58.840Z,33.70
2018-01-24T16:26:26.384Z,39.33
2018-01-24T16:28:53.923Z,35.97
2018-01-24T16:31:22.602Z,33.03
2018-01-24T16:33:50.184Z,40.20
2018-01-24T16:36:18.534Z,38.43
2018-01-24T16:38:46.074Z,36.63
2018-01-24T16:41:13.596Z,34.90
2018-01-24T16:43:41.223Z,38.67
2018-01-24T16:46:08.760Z,37.53
2018-01-24T16:48:36.308Z,36.53
2018-01-24T16:51:03.828Z,36.53
2018-01-24T16:53:31.424Z,38.60
2018-01-24T16:56:00.186Z,31.93
2018-01-24T16:58:27.782Z,36.60
2018-01-24T17:00:55.301Z,35.30
2018-01-24T17:03:22.912Z,33.73
2018-01-24T17:05:50.455Z,34.80
2018-01-24T17:08:18.015Z,34.43
2018-01-24T17:10:45.560Z,33.83
2018-01-24T17:13:13.086Z,36.97
2018-01-24T17:15:41.377Z,36.23
2018-01-24T17:18:09.657Z,39.60
2018-01-24T17:20:37.168Z,40.33
2018-01-24T17:23:04.683Z,43.97
2018-01-24T17:25:32.206Z,40.57
2018-01-24T17:27:59.733Z,43.03
2018-01-24T17:30:27.250Z,37.70
2018-01-24T17:32:54.768Z,39.90
2018-01-24T17:35:22.284Z,44.80
2018-01-24T17:37:49.788Z,38.90
2018-01-24T17:40:18.072Z,41.70
2018-01-24T17:42:45.584Z,43.97
2018-01-24T17:45:13.151Z,44.70
2018-01-24T17:47:40.668Z,39.33
2018-01-24T17:50:08.246Z,40.40
2018-01-24T17:52:35.761Z,41.13
2018-01-24T17:55:04.044Z,44.33
2018-01-24T17:57:31.561Z,47.33
2018-01-24T17:59:59.072Z,44.40
2018-01-24T18:02:27.386Z,42.53
2018-01-24T18:04:54.914Z,42.17
2018-01-24T18:07:22.437Z,46.93
2018-01-24T18:09:49.978Z,43.73
2018-01-24T18:12:17.514Z,49.23
2018-01-24T18:14:45.024Z,48.40
2018-01-24T18:17:12.574Z,50.67
2018-01-24T18:19:40.102Z,46.27
2018-01-24T18:22:07.614Z,45.80
2018-01-24T18:24:35.935Z,46.07
2018-01-24T18:27:03.486Z,46.90
2018-01-24T18:29:31.016Z,45.90
2018-01-24T18:31:59.358Z,48.17
2018-01-24T18:34:26.924Z,50.13
2018-01-24T18:36:54.428Z,39.77
2018-01-24T18:39:21.973Z,44.47
2018-01-24T18:41:49.492Z,45.53
2018-01-24T18:44:17.017Z,49.13
2018-01-24T18:46:44.552Z,46.00
2018-01-24T18:49:12.112Z,49.07
2018-01-24T18:51:39.685Z,48.83
2018-01-24T18:54:07.243Z,48.13
2018-01-24T18:56:34.762Z,48.23
2018-01-24T18:59:02.357Z,44.77
2018-01-24T19:01:30.668Z,46.50
2018-01-24T19:03:58.230Z,45.83
2018-01-24T19:06:25.782Z,48.10
2018-01-24T19:08:53.353Z,46.30
2018-01-24T19:11:20.918Z,50.67
2018-01-24T19:13:48.472Z,48.97
2018-01-24T19:16:16.233Z,53.20
2018-01-24T19:18:43.750Z,51.10
2018-01-24T19:21:11.273Z,54.43
2018-01-24T19:23:38.828Z,58.23
2018-01-24T19:26:06.362Z,51.03
2018-01-24T19:28:33.886Z,52.10
2018-01-24T19:31:01.448Z,53.23
2018-01-24T19:33:28.989Z,58.47
2018-01-24T19:35:57.284Z,61.37
2018-01-24T19:38:24.848Z,55.70
2018-01-24T19:40:52.407Z,53.00
2018-01-24T19:43:19.974Z,57.73
2018-01-24T19:45:47.520Z,58.73
2018-01-24T19:48:15.061Z,59.27
2018-01-24T19:50:43.460Z,58.93
2018-01-24T19:53:11.037Z,55.97
2018-01-24T19:55:38.608Z,62.50
2018-01-24T19:58:06.164Z,55.30
2018-01-24T20:00:34.062Z,55.83
2018-01-24T20:03:02.426Z,59.80
2018-01-24T20:05:29.992Z,65.77
2018-01-24T20:07:57.572Z,63.97
2018-01-24T20:10:25.133Z,62.40
2018-01-24T20:12:52.698Z,60.40
2018-01-24T20:15:20.224Z,64.90
2018-01-24T20:17:47.764Z,61.00
2018-01-24T20:20:15.306Z,60.73
2018-01-24T20:22:42.880Z,61.83
2018-01-24T20:25:10.417Z,61.40
2018-01-24T20:27:37.950Z,61.43
2018-01-24T20:30:05.496Z,59.40
2018-01-24T20:32:33.006Z,61.10
2018-01-24T20:35:00.576Z,61.50
2018-01-24T20:37:28.104Z,63.27
2018-01-24T20:39:55.638Z,64.50
2018-01-24T20:42:23.166Z,58.40
2018-01-24T20:44:50.758Z,61.30
2018-01-24T20:47:19.058Z,61.43
2018-01-24T20:49:46.585Z,58.10
2018-01-24T20:52:14.144Z,64.67
2018-01-24T20:54:41.683Z,61.13
2018-01-24T20:57:09.228Z,62.33
2018-01-24T20:59:37.054Z,59.93
2018-01-24T21:02:04.571Z,58.57
2018-01-24T21:04:32.120Z,63.07
2018-01-24T21:06:59.644Z,58.87
2018-01-24T21:09:27.172Z,68.13
2018-01-24T21:11:54.683Z,64.83
2018-01-24T21:14:22.236Z,61.43
2018-01-24T21:16:49.758Z,61.53
2018-01-24T21:19:18.043Z,61.90
2018-01-24T21:21:46.336Z,73.27
2018-01-24T21:24:13.848Z,77.83
2018-01-24T21:26:41.344Z,71.97
2018-01-24T21:29:29.396Z,92.83
2018-01-24T21:32:08.660Z,74.63
2018-01-24T21:37:35.238Z,71.70
2018-01-24T21:40:03.281Z,65.33
2018-01-24T21:42:31.024Z,69.87
2018-01-24T21:44:58.819Z,72.17
2018-01-24T21:47:26.530Z,65.33
2018-01-24T21:49:54.068Z,62.37
2018-01-24T21:52:21.740Z,66.57
2018-01-24T21:54:49.265Z,67.30
2018-01-24T21:57:16.832Z,66.23
2018-01-24T21:59:44.307Z,66.30
2018-01-24T22:02:11.832Z,64.80
2018-01-24T22:04:39.353Z,65.83
2018-01-24T22:07:06.859Z,59.93
2018-01-24T22:09:34.393Z,64.63
2018-01-24T22:12:01.904Z,61.07
2018-01-24T22:14:29.409Z,57.70
2018-01-24T22:16:56.930Z,60.53
2018-01-24T22:19:25.205Z,64.10
2018-01-24T22:21:52.703Z,56.93
2018-01-24T22:24:20.223Z,55.83
2018-01-24T22:26:47.724Z,61.90
2018-01-24T22:29:15.235Z,52.17
2018-01-24T22:31:43.532Z,53.27
2018-01-24T22:34:11.823Z,56.60
2018-01-24T22:36:39.341Z,61.00
2018-01-24T22:39:06.891Z,56.07
2018-01-24T22:41:34.391Z,55.80
2018-01-24T22:44:01.895Z,51.60
2018-01-24T22:46:29.428Z,53.50
2018-01-24T22:48:56.937Z,58.33
2018-01-24T22:51:25.335Z,52.10
2018-01-24T22:53:52.868Z,54.10
2018-01-24T22:56:20.380Z,55.07
2018-01-24T22:58:47.889Z,51.17
2018-01-24T23:01:15.426Z,49.80
2018-01-24T23:03:42.941Z,54.97
2018-01-24T23:06:10.447Z,52.23
2018-01-24T23:08:37.959Z,49.67
2018-01-24T23:11:05.469Z,54.17
2018-01-24T23:13:32.988Z,57.73
2018-01-24T23:16:00.535Z,51.00
2018-01-24T23:18:28.048Z,48.73
2018-01-24T23:20:55.555Z,49.33
2018-01-24T23:23:23.074Z,43.67
2018-01-24T23:25:50.579Z,48.43
2018-01-24T23:28:18.083Z,52.90
2018-01-24T23:30:45.611Z,49.57
2018-01-24T23:33:13.128Z,46.70
2018-01-24T23:35:41.403Z,46.27
2018-01-24T23:38:08.944Z,47.23
2018-01-24T23:40:36.467Z,49.37
2018-01-24T23:43:04.010Z,47.27
2018-01-24T23:45:31.541Z,46.10
2018-01-24T23:47:59.827Z,48.07
2018-01-24T23:50:27.374Z,46.40
2018-01-24T23:52:54.893Z,49.57
2018-01-24T23:55:22.419Z,44.37
2018-01-24T23:57:50.027Z,44.23
